Search for airport 
image banner adimage banner adimage banner ad
image banner ad

24CL - Salyer Farms

Located in Corcoran, United States

ICAO - 24CL, IATA -

Data provided by Airmate  

General information

Coordinates: N36°5'19" W119°32'30"
Elevation is 205 feet MSL.
Magnetic variation is 12° East
View others Airports in California

Operational data

Special qualification required
Current time UTC:
Current local time:
Weather at : KHJO - Hanford Muni ( 26 km )
METAR: KHJO 260853Z AUTO 01003KT 7SM OVC025 18/15 A2993 RMK AO2 SLP134 T01830150 53002
View NOTAMs / SUP AIP / TFR affecting this airport [VIEW]
Communications frequencies: [VIEW]

Runways:

RWY identifierQFULength (ft)Width (ft)SurfaceLDA (ft)
14681575ASPH
32681575ASPH

Airport contact information

Address: Corcoran United States

Satellite view of 24CL